x

9444090 - Port Angeles, Wa (ptaw1) Weather Station

11:30 - Wed 2nd Sep 2015 All times are PDT. -7 hours from GMT.

  • Wind
    5mph, 6mph gusts
  • Sea Temp 51°f
  • Ar Temp 55°f
  • Sea Pressure 1011.7mb
  • 9444090 - Port Angeles, Wa
  • 9444090 - Port Angeles, Wa

More Historic Weather Station data

Upgrade to MSW Pro to gain access to the past 30 days of data for over 8000 Wavebouys and Weather Stations around the globe.

Join Pro

Comparision Forecast

View Surf forecast
   
Qua 09/02 11:30 5 6 mph 1011.7mb 51f 55f
11:24 3
mph
1011.7mb 51f 55f
11:18 2 3 mph 1011.7mb 51f 56f
11:12 2
mph
1011.6mb 51f 56f
11:06 1 2 mph 1011.5mb 51f 56f
11:00 2
mph
1011.6mb 51f 55f
10:36 2 3 mph 1011.4mb 51f 58f
10:30 1 6 mph 1011.3mb 51f 57f
10:24 3 6 mph 1011.4mb 51f 56f
10:18 2 7 mph 1011.5mb 51f 56f
10:12 6 8 mph 1011.3mb 51f 56f
10:06 7 8 mph 1011.3mb 51f 56f
10:00 7 8 mph 1011.4mb 51f 56f
9:36 8 10 mph 1011.3mb 51f 56f
9:30 6 7 mph 1011.3mb 51f 57f
9:24 1 5 mph 1011.3mb 51f 57f
9:18 5 6 mph 1011.4mb 51f 57f
9:12 5 7 mph 1011.3mb 51f 57f
9:06 6 8 mph 1011.2mb 51f 56f
9:00 5 7 mph 1011.2mb 51f 55f
8:36 1 3 mph 1011.3mb 51f 54f
8:30  -  1 mph 1011.3mb 51f 53f
8:24 2 5 mph 1011.3mb 51f 53f
8:18 2 5 mph 1011.2mb 51f 53f
8:12 3 6 mph 1011.1mb 51f 52f
8:06 5 7 mph 1011.1mb 51f 52f
8:00 7 8 mph 1011.2mb 51f 53f
7:36 3 5 mph 1010.7mb 51f 51f
7:30 2 5 mph 1010.8mb 51f 51f
7:24 3 6 mph 1010.7mb 51f 51f
7:18 6 7 mph 1010.7mb 51f 51f
7:12 3 5 mph 1010.6mb 51f 51f
7:06 3 6 mph 1010.6mb 51f 50f
7:00 1 6 mph 1010.5mb 51f 50f
6:36 5 7 mph 1010mb 51f 50f
6:30 5 7 mph 1010mb 51f 50f
6:24 5 6 mph 1010mb 51f 50f
6:18 2 3 mph 1010.1mb 51f 50f
6:12 2 3 mph 1010mb 51f 50f
6:06 3 6 mph 1009.9mb 51f 50f
6:00 5 6 mph 1009.9mb 51f 50f
5:36 6 7 mph 1009.6mb 50f 51f
5:30 3 5 mph 1009.6mb 50f 52f
5:24 5
mph
1009.6mb 50f 52f
5:18 3 5 mph 1009.5mb 50f 52f
5:12 5 6 mph 1009.5mb 50f 52f
5:06 2 6 mph 1009.4mb 50f 53f
5:00 2 6 mph 1009.4mb 50f 53f
4:36 8 10 mph 1009.1mb 50f 53f
4:30 6 7 mph 1009.1mb 50f 54f
4:24 5 8 mph 1009.1mb 50f 54f
4:18 9 11 mph 1009mb 50f 55f
4:12 5 9 mph 1008.9mb 50f 55f
4:06 6 9 mph 1008.8mb 50f 56f
4:00 5 8 mph 1008.8mb 50f 56f
3:36 5 7 mph 1008.8mb 50f 56f
3:30 6 8 mph 1008.8mb 51f 56f
3:24 5 7 mph 1008.8mb 51f 55f
3:18 6 8 mph 1008.8mb 51f 56f
3:12 7 13 mph 1008.8mb 51f 56f
3:06 8 11 mph 1008.9mb 51f 56f
3:00 7 10 mph 1008.8mb 51f 56f
2:36 10 16 mph 1008.7mb 51f 56f
2:30 6 13 mph 1008.7mb 51f 56f
2:24 9 14 mph 1008.7mb 51f 56f
2:18 6 13 mph 1008.7mb 51f 56f
2:12 7 14 mph 1008.6mb 51f 56f
2:06 8 11 mph 1008.6mb 51f 56f
2:00 7 10 mph 1008.6mb 51f 56f
1:36 5 7 mph 1008.4mb 51f 55f
1:30 3 5 mph 1008.3mb 51f 55f
1:24 3 5 mph 1008.3mb 51f 55f
1:18 6 7 mph 1008.4mb 51f 54f
1:12 5 11 mph 1008.3mb 51f 55f
1:06 7 9 mph 1008.3mb 51f 55f
1:00 7 10 mph 1008.2mb 51f 55f
12:36 6 7 mph 1008.3mb 51f 55f
12:30 5 8 mph 1008.3mb 51f 55f
12:24 3 8 mph 1008.2mb 51f 55f
12:18 2 6 mph 1008.2mb 51f 56f
12:12 3 6 mph 1008.3mb 51f 56f
12:06 3 6 mph 1008.3mb 51f 56f
12:00 3 6 mph 1008.3mb 51f 56f
Ter 09/01 11:36 2 8 mph 1008.3mb 51f 56f
11:30 6 7 mph 1008.2mb 51f 56f
11:24 2 3 mph 1008.3mb 51f 55f
11:18 2 6 mph 1008.2mb 51f 56f
11:12 6
mph
1008.1mb 51f 56f
11:06 3 6 mph 1008.1mb 51f 56f
11:00 5 8 mph 1008.2mb 51f 55f
10:36 2 3 mph 1008.2mb 51f 55f
10:30 3 6 mph 1008.1mb 50f 54f
10:24 6 7 mph 1008.1mb 50f 54f
10:18 3
mph
1008mb 50f 55f
10:12 2 3 mph 1007.9mb 50f 55f
10:06 2 5 mph 1007.9mb 50f 55f
10:00 2 6 mph 1007.8mb 50f 56f
9:36 6 7 mph 1007.5mb 50f 57f
9:30 6 7 mph 1007.6mb 50f 57f
9:24 7 9 mph 1007.6mb 50f 57f
9:18 6 7 mph 1007.6mb 50f 57f
9:12 2 3 mph 1007.6mb 50f 56f
9:06  -  5 mph 1007.6mb 50f 56f
9:00 2 5 mph 1007.6mb 50f 56f
8:36 6 10 mph 1007.8mb 50f 55f
8:30 8 9 mph 1007.7mb 51f 55f
8:24 7 11 mph 1007.5mb 51f 55f
8:18 3 5 mph 1007.4mb 51f 55f
8:12 3 5 mph 1007.4mb 51f 56f
8:06 3 5 mph 1007.4mb 51f 57f
8:00 3 6 mph 1007.3mb 51f 58f
7:36  -  1 mph 1007.2mb 51f 58f
7:30 1 2 mph 1007.1mb 51f 59f
7:24 1
mph
1007.3mb 51f 59f
7:18 1 2 mph 1007.3mb 50f 59f
7:12 2
mph
1007.4mb 50f 59f
7:06 1 2 mph 1007.5mb 50f 60f
7:00  -  2 mph 1007.6mb 50f 59f
6:36 2 3 mph 1007.6mb 50f 59f
6:30 3 6 mph 1007.8mb 50f 58f
6:24 3
mph
1007.8mb 50f 58f
6:18 2 5 mph 1007.7mb 50f 58f
6:12 3
mph
1007.7mb 50f 57f
6:06 1 3 mph 1007.8mb 50f 58f
6:00 1 2 mph 1007.8mb 50f 58f
5:36 2 6 mph 1007.8mb 50f 56f
5:30 6
mph
1007.8mb 50f 56f
5:24 5 6 mph 1007.9mb 50f 56f
5:18 6 8 mph 1007.9mb 50f 56f
5:12 7 9 mph 1007.9mb 50f 56f
5:06 5 8 mph 1007.9mb 51f 56f
5:00 2 3 mph 1007.8mb 51f 56f
4:36  -  2 mph 1007.9mb 51f 56f
4:30 1 2 mph 1008.1mb 51f 56f
4:24 2 3 mph 1008.2mb 51f 56f
4:18 2 5 mph 1008.3mb 51f 56f
4:12 3 5 mph 1008.3mb 51f 56f
4:06 2 3 mph 1008.5mb 51f 56f
4:00 3 5 mph 1008.5mb 51f 56f
3:36 1 2 mph 1008.7mb 51f 58f
3:30 2 3 mph 1008.7mb 51f 57f
3:24 3 5 mph 1008.8mb 51f 57f
3:18  -  2 mph 1009mb 51f 57f
3:12 2 3 mph 1009mb 51f 56f
3:06 1 5 mph 1009mb 51f 58f
3:00 2 5 mph 1008.8mb 51f 58f
2:36 2 3 mph 1009.2mb 51f 56f
2:30 2 5 mph 1009.3mb 51f 57f
2:24 2 5 mph 1009.3mb 51f 58f
2:18 2 3 mph 1009.3mb 51f 58f
2:12 2 3 mph 1009.3mb 50f 58f
2:06 2 5 mph 1009.2mb 50f 58f
2:00 3 6 mph 1009.3mb 50f 58f
1:36 2
mph
1009.4mb 50f 57f
1:30 3 5 mph 1009.4mb 50f 58f
1:24 3 6 mph 1009.5mb 50f 58f
1:18 6 8 mph 1009.5mb 50f 58f
1:12 2
mph
1009.5mb 50f 58f
1:06 2 3 mph 1009.7mb 50f 58f
1:00  -  mph 1009.8mb 50f 60f
12:36 5 8 mph 1009.9mb 50f 56f
12:30 3 5 mph 1009.9mb 50f 56f
12:24 2 3 mph 1010mb 50f 56f
12:18 1 7 mph 1009.9mb 50f 58f
12:12 5 7 mph 1010.1mb 50f 57f
12:06 1 2 mph 1010mb 50f 57f
12:00 1 2 mph 1010mb 50f 57f
11:54 1 5 mph 1010mb 50f 56f
11:48 3 5 mph 1010.1mb 50f 56f
11:36 2 3 mph 1010mb 50f 56f
11:30 2 6 mph 1010mb 50f 55f
11:24 3 7 mph 1009.9mb 50f 54f
11:18 7 11 mph 1010.1mb 50f 55f
11:12 6 10 mph 1010.2mb 51f 55f
11:06 8 9 mph 1010.3mb 51f 56f
11:00 6
mph
1010.1mb 51f 56f
10:54 1 2 mph 1010mb 51f 56f
10:48  -  2 mph 1009.9mb 51f 56f
10:36 1 5 mph 1009.8mb 51f 57f
10:30 5
mph
1009.8mb 51f 57f
10:24 3 5 mph 1009.8mb 51f 56f
10:18 5 7 mph 1009.6mb 51f 56f
10:12 6 7 mph 1009.6mb 51f 56f
10:06 5 6 mph 1009.6mb 51f 56f
10:00 5 6 mph 1009.6mb 51f 56f
9:54 6 7 mph 1009.7mb 51f 56f
9:48 3 5 mph 1009.7mb 51f 56f
9:36  -  2 mph 1009.8mb 51f 56f
9:30  -  3 mph 1009.9mb 51f 57f
9:24 3 5 mph 1009.9mb 51f 57f
9:18 5 6 mph 1009.9mb 51f 57f
9:12 6
mph
1009.9mb 51f 58f
9:06 3 5 mph 1010mb 51f 58f
9:00 2
mph
1010.1mb 51f 58f
8:54 2
mph
1010.1mb 51f 57f
8:48  -  5 mph 1010mb 51f 56f
8:36 2 5 mph 1010mb 51f 57f
8:30 2 3 mph 1010mb 51f 57f
8:24 3 6 mph 1010mb 51f 57f
8:18 3 5 mph 1010mb 51f 56f
8:12 2 5 mph 1010mb 51f 57f
8:06 3 5 mph 1010mb 51f 57f
8:00 1 2 mph 1010mb 51f 58f
7:54 3 5 mph 1010mb 51f 57f
7:48 3
mph
1010.1mb 51f 57f
7:36 2 3 mph 1010.1mb 51f 57f
7:30 2 3 mph 1010.2mb 51f 57f
7:24 2 3 mph 1010.2mb 51f 57f
7:18 1 2 mph 1010.2mb 51f 56f
7:12 2
mph
1010.1mb 51f 56f
7:06 2 3 mph 1010.2mb 51f 56f
7:00  -  1 mph 1010.3mb 51f 57f
6:36 2
mph
1010.3mb 51f -
6:30 1 2 mph 1010.4mb 51f -
6:24  -  2 mph 1010.4mb 51f -
6:18  -  2 mph 1010.4mb 51f -
6:12  -  1 mph 1010.6mb 51f -
6:06 2 3 mph 1010.6mb 51f -
6:00  -  2 mph 1010.6mb 51f -
5:54 2
mph
1010.7mb 51f -
5:48 2 3 mph 1010.7mb 51f -
5:36 2 5 mph 1010.8mb 51f 57f
5:30 3
mph
1010.9mb 51f 57f
5:24 2 3 mph 1010.9mb 51f 57f
5:18 2 3 mph 1011mb 51f 57f
5:12 5 6 mph 1011mb 51f 57f
5:06 5 6 mph 1011mb 51f 57f
5:00 5 7 mph 1011.1mb 51f 57f
4:54 6 7 mph 1011.1mb 51f 57f
4:48 2 6 mph 1011.1mb 51f 57f
4:36 2 3 mph 1011.2mb 51f 57f
4:30 2 3 mph 1011.1mb 51f 57f
4:24 2 5 mph 1011mb 51f 57f
4:18 5 6 mph 1011mb 51f 58f
4:12 5 9 mph 1011mb 51f 58f
4:06 6 8 mph 1011mb 51f 58f
4:00 3 6 mph 1011.1mb 51f 58f
3:54 5 6 mph 1011mb 51f 58f
3:48 3 6 mph 1010.9mb 51f 58f
3:36 7 9 mph 1010.9mb 51f 58f
3:30 7 9 mph 1010.9mb 51f 58f
3:24  -  5 mph 1010.8mb 51f 58f
3:18 1 2 mph 1010.8mb 51f 58f
3:12 2 6 mph 1010.7mb 51f 57f
3:06  -  1 mph 1010.7mb 51f 57f
3:00  -  2 mph 1010.7mb 51f 57f
2:54 1 3 mph 1010.7mb 51f 57f
2:48  -  1 mph 1010.6mb 51f 58f
2:36  -  3 mph - 51f 57f
2:30 2 6 mph - 51f 56f
2:24 3 6 mph - 51f 57f
2:18 6 8 mph - 51f 57f
2:12 8 9 mph - 51f 56f
2:06 8 10 mph - 51f 56f
2:00 10 13 mph - 51f 56f
1:54 10 14 mph - 51f 56f
1:48 13 20 mph - 51f 56f
1:36 14 18 mph 1009.9mb 51f 56f
1:30 13 15 mph 1009.7mb 51f 58f
1:24 7 9 mph 1009.6mb 51f 57f
1:18 6 7 mph 1009.5mb 51f 58f
1:12 2 3 mph 1009.3mb 51f 58f
1:06 2
mph
1009.4mb 51f 58f
1:00  -  3 mph 1009.3mb 51f 58f
12:54 2 5 mph 1009.4mb 51f 58f
12:48 1 3 mph 1009.3mb 51f 58f
12:36 1 3 mph 1009.4mb 51f 58f
12:30 1 3 mph 1009.4mb 51f 57f
12:24 2 5 mph 1009.5mb 51f 57f
12:18 5
mph
1009.6mb 51f 57f
12:12 2 3 mph 1009.7mb 51f 56f
12:06 3 7 mph 1009.6mb 51f 56f
12:00 3 6 mph 1009.7mb 51f 56f
Seg 08/31 11:54 1 3 mph 1009.8mb 51f 56f
11:48 3 7 mph 1010mb 51f 56f
11:36 3 6 mph 1010.1mb 51f 56f
11:30 3 8 mph 1009.9mb 51f 56f
11:24 3 6 mph 1009.6mb 51f 56f
11:18 3 6 mph 1009.9mb 51f 57f
11:12 7 10 mph 1009.8mb 51f 57f
11:06 6 9 mph 1009.7mb 51f 57f
11:00 6 7 mph 1009.9mb 51f 57f
10:54 1 3 mph 1009.8mb 51f 57f
10:48 2 5 mph 1009.8mb 51f 57f
10:36 3 5 mph 1009.9mb 51f 57f
10:30 2 3 mph 1009.8mb 51f 58f
10:24 2 3 mph 1009.9mb 51f 59f
10:18 2 6 mph 1010mb 51f 58f
10:12 5 6 mph 1010mb 51f 57f
10:06 3
mph
1010.1mb 51f 57f
10:00 2 5 mph 1010.2mb 51f 57f
9:54 3 5 mph 1010.1mb 51f 57f
9:48 3 5 mph 1010.1mb 51f 56f
9:36 3 5 mph 1010mb 51f 56f
9:30 2 3 mph 1010mb 51f 57f
9:24  -  2 mph 1010mb 51f 58f
9:18 1 3 mph 1010mb 51f 56f
9:12 5 6 mph 1010mb 51f 56f
9:06 6
mph
1010.1mb 51f 56f
9:00 6 7 mph 1010.1mb 51f 56f
8:54 6
mph
1010.1mb 51f 56f
8:48 6
mph
1010.2mb 51f 56f
8:36 8 10 mph 1010mb 51f 56f
8:30 7 8 mph 1010.1mb 51f 57f
8:24 3 7 mph 1009.9mb 51f 57f
8:18 8 10 mph 1009.8mb 51f 57f
8:12 8 9 mph 1009.9mb 51f 57f
8:06 6 8 mph 1010mb 51f 57f
8:00 5 8 mph 1010mb 51f 58f
7:54 5 7 mph 1009.9mb 51f 60f
7:48 6 8 mph 1009.9mb 51f 61f
7:36 5 6 mph 1010mb 51f 60f
7:30 5
mph
1010.2mb 51f 59f
7:24 1 2 mph 1010.1mb 51f 60f
7:18 3 6 mph 1010.1mb 51f 60f
7:12 1 5 mph 1010.2mb 51f 59f
7:06 5
mph
1010.2mb 51f 58f
7:00 6 7 mph 1010.2mb 51f 58f
6:54 6
mph
1010.3mb 51f 58f
6:48 5 6 mph 1010.4mb 51f 58f
6:36 5 6 mph 1010.7mb 51f 58f
6:30 6 7 mph 1010.7mb 51f 58f
6:24 5 6 mph 1010.8mb 51f 59f
6:18 3 5 mph 1011mb 51f 58f
6:12 3 6 mph 1011.2mb 51f 58f
6:06 3 7 mph 1011.2mb 51f 58f
6:00 6 7 mph 1011.2mb 51f 58f
5:54 2 3 mph 1011.4mb 51f 59f
5:48 2 3 mph 1011.3mb 51f 59f
5:36 3
mph
1011.3mb 51f 59f
5:30 1 2 mph 1011.4mb 51f 58f
5:24 2 3 mph 1011.2mb 51f 58f
5:18 2 3 mph 1011.1mb 51f 59f
5:12 2 3 mph 1011.1mb 51f 58f
5:06  -  2 mph 1011.2mb 51f 58f
5:00 2 5 mph 1011.2mb 51f 59f
4:54  -  3 mph 1011.2mb 51f 59f
4:48 2
mph
1011.3mb 51f 58f
4:36  -  mph 1011.3mb 51f 58f
3:36 1 3 mph 1011.4mb 51f 58f
3:30 3 6 mph 1011.4mb 51f 58f
3:24 2 8 mph 1011.3mb 51f 59f
3:18 1 2 mph 1011.6mb 51f 60f
3:12 1 5 mph 1011.7mb 51f 59f
3:06 1 2 mph 1011.9mb 51f 60f
3:00  -  2 mph 1012.1mb 51f 58f
2:54 3
mph
1012.1mb 51f 58f
2:48 5
mph
1011.8mb 51f 58f
2:36  -  3 mph 1011.9mb 51f 59f
2:30 2 3 mph 1012.1mb 51f 58f
2:24 1 2 mph 1012.2mb 51f 57f
2:18 1 5 mph 1012mb 51f 57f
2:12 3 5 mph 1012.2mb 51f 56f
2:06 3 5 mph 1012.2mb 51f 57f
2:00 5 6 mph 1012.3mb 51f 56f
1:54 5 6 mph 1012mb 51f 57f
1:48 2 3 mph 1012.2mb 51f 56f
1:36  -  2 mph 1012mb 51f 58f
1:30 3
mph
1012.1mb 51f 57f
1:24 1 3 mph 1011.9mb 51f 56f
1:18 5 6 mph 1011.8mb 51f 57f
1:12 3 6 mph 1011.9mb 51f 56f
1:06 3 5 mph 1011.8mb 51f 56f
1:00 2 5 mph 1011.8mb 51f 57f
12:54 3 6 mph 1011.8mb 51f 57f
12:48 2 5 mph 1011.7mb 51f 57f
12:36 5 6 mph 1011.7mb 51f 57f
12:30 1 3 mph 1011.7mb 51f 57f
12:24  -  3 mph 1011.7mb 51f 58f
12:18 3 5 mph 1011.8mb 51f 59f
12:12 3
mph
1011.8mb 51f 58f
12:06 3 5 mph 1011.9mb 51f 58f
12:00 3 5 mph 1011.9mb 51f 58f
11:54 1 3 mph 1011.8mb 51f 59f
11:48 2 5 mph 1011.9mb 51f 57f
11:36 6 9 mph 1012mb 51f 57f
11:30 6 8 mph 1012.2mb 51f 58f
11:24 3 5 mph 1012.3mb 51f 58f
11:18 1 2 mph 1012.2mb 51f 58f
11:12 2 3 mph 1012.2mb 51f 58f
11:06 1
mph
1012.1mb 51f 59f
11:00  -  2 mph 1012.1mb 51f 58f
10:54 1 2 mph 1011.9mb 51f 58f
10:48  -  3 mph 1011.9mb 51f 58f
10:36 3 5 mph - 51f 57f
10:30  -  1 mph - 51f 57f
10:24 1 2 mph - 51f 58f
10:18 1 3 mph - 51f 58f
10:12 3 5 mph - 51f 57f
10:06 2 3 mph - 51f 57f
10:00 2 6 mph - 51f 57f
9:54 3 6 mph - 51f 56f
9:48 3 5 mph - 51f 56f
9:36 1 2 mph 1011.6mb 51f 55f
9:30 3 5 mph 1011.7mb 51f 55f
9:24 2 3 mph 1011.7mb 51f 55f
9:18 3 5 mph 1011.7mb 51f 55f
9:12 3
mph
1011.7mb 51f 55f
9:06 2 3 mph 1011.8mb 51f 55f
9:00 3 5 mph 1011.8mb 51f 55f
8:54 1 3 mph 1011.9mb 51f 55f
8:48 2 5 mph 1011.8mb 51f 55f
7:54 3 6 mph 1011.8mb 51f 56f
7:48  -  5 mph 1011.9mb 51f 56f
6:54 1 2 mph 1011.7mb 51f 56f
6:48 1 2 mph 1011.7mb 51f 56f
5:54 2 3 mph 1011.3mb 51f 55f
5:48 1 2 mph 1011.2mb 51f 55f
4:54 1 2 mph 1011.1mb 51f 56f
4:48 1 2 mph 1011.2mb 51f 56f
3:54  -  mph 1011.1mb 51f 56f
3:48  -  mph 1011.2mb 51f 56f
2:54  -  2 mph 1011.3mb 51f 57f
2:48 2
mph
1011.3mb 51f 57f